Time;durP1;ratioP1;P1;durP2;ratioP2;P2;SDS_P1;SDS_P2;PMS_P1;PMS_P2;Temp;Humidity;BMP_temperature;BMP_pressure;BME280_temperature;BME280_humidity;BME280_pressure;Samples;Min_cycle;Max_cycle;Signal;HPM_P1;HPM_P2
2021/12/20 00:00:53;;;;;;;10.87;6.37;;;;;;;3.55;100.00;-23915.41;5077802;28;20190;-85
2021/12/20 00:03:25;;;;;;;9.00;5.70;;;;;;;3.51;100.00;-23914.25;5069583;28;20231;-84
2021/12/20 00:05:51;;;;;;;9.73;6.20;;;;;;;3.74;100.00;-23920.69;5084132;28;20277;-82
2021/12/20 00:08:17;;;;;;;8.77;5.77;;;;;;;3.44;100.00;-23912.25;5068004;28;20277;-84
2021/12/20 00:10:42;;;;;;;10.43;5.97;;;;;;;3.21;100.00;-23905.84;5068134;28;20186;-83
2021/12/20 00:13:08;;;;;;;8.87;5.90;;;;;;;3.60;100.00;-23916.69;5068536;28;20296;-84
2021/12/20 00:15:33;;;;;;;9.67;6.33;;;;;;;4.02;100.00;-23928.66;5070596;28;20190;-84
2021/12/20 00:17:59;;;;;;;9.30;6.50;;;;;;;4.18;100.00;-23933.06;5069344;28;20546;-83
2021/12/20 00:20:25;;;;;;;9.93;6.33;;;;;;;4.22;100.00;-23934.34;5076413;28;20181;-84
2021/12/20 00:22:51;;;;;;;12.77;6.50;;;;;;;4.52;100.00;-23942.75;5065427;28;20220;-81
2021/12/20 00:25:17;;;;;;;11.33;6.67;;;;;;;4.62;100.00;-23945.59;5064705;28;20241;-84
2021/12/20 00:27:42;;;;;;;9.63;6.60;;;;;;;4.68;100.00;-23947.31;5063668;28;20210;-83
2021/12/20 00:30:09;;;;;;;10.40;6.97;;;;;;;5.00;100.00;-23956.13;5077173;28;20280;-83
2021/12/20 00:32:35;;;;;;;11.70;7.57;;;;;;;5.05;100.00;-23957.69;5079922;28;20191;-82
2021/12/20 00:35:02;;;;;;;10.37;7.80;;;;;;;5.00;100.00;-23956.25;5082108;28;20205;-83
2021/12/20 00:40:21;;;;;;;10.47;6.80;;;;;;;5.04;100.00;-23957.25;5064855;28;20259;-83
2021/12/20 00:43:13;;;;;;;9.97;6.57;;;;;;;4.87;100.00;-23952.72;5066058;28;20181;-82
2021/12/20 00:45:38;;;;;;;11.13;7.23;;;;;;;4.58;100.00;-23944.47;5062532;28;20263;-83
2021/12/20 00:48:05;;;;;;;10.03;6.93;;;;;;;4.87;100.00;-23952.56;5069454;28;20270;-84
2021/12/20 00:50:32;;;;;;;9.03;7.10;;;;;;;4.74;100.00;-23948.88;5076309;28;20213;-84
2021/12/20 00:52:58;;;;;;;11.37;7.77;;;;;;;4.67;100.00;-23947.03;5069179;28;20170;-84
2021/12/20 00:55:26;;;;;;;11.87;7.63;;;;;;;4.83;100.00;-23951.44;5068295;28;20193;-84
2021/12/20 00:57:54;;;;;;;12.40;8.87;;;;;;;4.26;100.00;-23935.50;5070076;28;20632;-83
2021/12/20 01:00:36;;;;;;;13.57;8.53;;;;;;;4.33;100.00;-23937.34;5065562;28;20180;-83
2021/12/20 01:03:04;;;;;;;10.97;7.67;;;;;;;4.30;100.00;-23936.63;5074800;28;20239;-83
2021/12/20 01:05:30;;;;;;;12.47;7.97;;;;;;;4.54;100.00;-23943.31;5073418;28;20243;-84
2021/12/20 01:07:59;;;;;;;12.77;8.73;;;;;;;3.95;100.00;-23926.81;5072404;28;20239;-85
2021/12/20 01:10:28;;;;;;;10.20;7.60;;;;;;;4.30;100.00;-23936.50;5064829;28;20182;-84
2021/12/20 01:12:55;;;;;;;11.00;7.47;;;;;;;4.29;100.00;-23936.34;5074458;28;20178;-85
2021/12/20 01:15:22;;;;;;;12.20;7.53;;;;;;;4.51;100.00;-23942.47;5064999;28;20201;-84
2021/12/20 01:17:49;;;;;;;13.57;7.53;;;;;;;4.72;100.00;-23948.44;5086846;28;20197;-82
2021/12/20 01:20:15;;;;;;;11.70;8.00;;;;;;;5.06;100.00;-23957.97;5081007;28;20212;-84
2021/12/20 01:22:42;;;;;;;11.43;8.10;;;;;;;4.68;100.00;-23947.16;5069233;28;20206;-84
2021/12/20 01:25:08;;;;;;;11.57;7.30;;;;;;;4.58;100.00;-23944.31;5080582;28;20194;-85
2021/12/20 01:27:33;;;;;;;12.37;7.70;;;;;;;4.85;100.00;-23952.16;5072468;28;20212;-85
2021/12/20 01:29:59;;;;;;;12.73;7.03;;;;;;;4.87;100.00;-23952.56;5072658;28;20186;-84
2021/12/20 01:33:00;;;;;;;10.90;6.97;;;;;;;4.60;100.00;-23945.03;5078861;28;20178;-79
2021/12/20 01:35:27;;;;;;;10.27;6.93;;;;;;;5.59;100.00;-23972.75;5055991;28;20253;-84
2021/12/20 01:37:54;;;;;;;8.50;6.37;;;;;;;5.65;100.00;-23974.47;5064630;28;20235;-84
2021/12/20 01:40:20;;;;;;;9.30;6.83;;;;;;;5.56;100.00;-23972.06;5072382;28;20210;-84
2021/12/20 01:42:47;;;;;;;8.93;6.87;;;;;;;5.40;100.00;-23967.38;5066931;28;20193;-83
2021/12/20 01:45:18;;;;;;;8.50;6.50;;;;;;;5.66;100.00;-23974.75;5063414;28;20226;-84
2021/12/20 01:47:48;;;;;;;10.47;7.00;;;;;;;5.28;100.00;-23964.22;5065068;28;20679;-83
2021/12/20 01:50:23;;;;;;;9.90;6.63;;;;;;;5.45;100.00;-23968.94;5061343;28;20193;-83
2021/12/20 01:52:49;;;;;;;8.43;6.37;;;;;;;5.45;100.00;-23968.94;5075600;28;20178;-84
2021/12/20 01:55:21;;;;;;;10.70;7.13;;;;;;;5.48;100.00;-23969.63;5068480;28;20184;-85
2021/12/20 01:57:48;;;;;;;10.47;6.83;;;;;;;5.59;100.00;-23972.91;5084362;28;20209;-82
2021/12/20 02:00:21;;;;;;;10.03;6.93;;;;;;;5.31;100.00;-23964.94;5073202;28;20196;-83
2021/12/20 02:02:47;;;;;;;8.60;6.30;;;;;;;5.57;100.00;-23972.19;5060942;28;20186;-84
2021/12/20 02:05:24;;;;;;;10.23;6.97;;;;;;;5.17;100.00;-23961.09;5080633;28;20185;-85
2021/12/20 02:08:00;;;;;;;11.93;7.57;;;;;;;5.23;100.00;-23962.81;5075008;28;20209;-84
2021/12/20 02:10:26;;;;;;;12.23;7.83;;;;;;;5.15;100.00;-23960.53;5077412;28;20243;-85
2021/12/20 02:12:51;;;;;;;11.27;7.50;;;;;;;5.19;100.00;-23961.66;5063244;28;20281;-85
2021/12/20 02:15:17;;;;;;;10.70;7.53;;;;;;;4.67;100.00;-23947.03;5066769;28;20190;-83
2021/12/20 02:17:43;;;;;;;15.87;7.60;;;;;;;5.23;100.00;-23962.66;5078796;28;20185;-83
2021/12/20 02:20:10;;;;;;;10.13;6.30;;;;;;;5.42;100.00;-23968.06;5065247;28;20188;-84
2021/12/20 02:22:38;;;;;;;9.00;6.47;;;;;;;5.49;100.00;-23969.91;5075825;28;20186;-86
2021/12/20 02:25:05;;;;;;;9.40;7.10;;;;;;;5.26;100.00;-23963.66;5079438;28;20558;-84
2021/12/20 02:27:30;;;;;;;8.93;6.63;;;;;;;5.49;100.00;-23969.91;5069810;28;20206;-84
2021/12/20 02:30:05;;;;;;;9.00;6.40;;;;;;;5.57;100.00;-23972.19;5073533;28;20281;-83
2021/12/20 02:38:17;;;;;;;8.33;6.17;;;;;;;6.01;100.00;-23984.69;5077021;28;20181;-85
2021/12/20 02:40:43;;;;;;;9.03;6.57;;;;;;;5.54;100.00;-23971.34;5065805;28;20191;-83
2021/12/20 02:43:12;;;;;;;10.97;6.97;;;;;;;5.58;100.00;-23972.47;5065608;28;20231;-82
2021/12/20 02:45:38;;;;;;;10.53;7.00;;;;;;;5.75;100.00;-23977.31;5063227;28;20185;-84
2021/12/20 02:48:04;;;;;;;10.33;7.20;;;;;;;5.74;100.00;-23977.16;5070662;28;20347;-85
2021/12/20 02:50:29;;;;;;;8.57;6.40;;;;;;;5.38;100.00;-23966.78;5066455;28;20265;-84
2021/12/20 02:52:55;;;;;;;9.73;6.73;;;;;;;5.84;100.00;-23979.72;5063313;28;20729;-84
2021/12/20 02:55:20;;;;;;;8.23;6.10;;;;;;;5.54;100.00;-23971.34;5066250;28;20713;-85
2021/12/20 02:57:46;;;;;;;9.03;6.60;;;;;;;5.77;100.00;-23977.88;5066170;28;20186;-83
2021/12/20 03:00:13;;;;;;;8.63;6.27;;;;;;;5.90;100.00;-23981.56;5065465;28;20775;-85
2021/12/20 03:02:39;;;;;;;8.37;5.40;;;;;;;5.98;100.00;-23983.84;5066884;28;20197;-83
2021/12/20 03:06:18;;;;;;;7.37;5.77;;;;;;;5.78;100.00;-23978.31;5079260;28;20560;-82
2021/12/20 03:11:55;;;;;;;9.37;6.20;;;;;;;5.80;100.00;-23978.72;5052761;28;20273;-84
2021/12/20 03:14:27;;;;;;;7.83;6.00;;;;;;;5.99;100.00;-23984.00;5061833;28;20192;-83
2021/12/20 03:16:53;;;;;;;7.53;6.10;;;;;;;6.26;100.00;-23991.53;5079313;28;20866;-84
2021/12/20 03:19:25;;;;;;;9.80;5.47;;;;;;;6.07;100.00;-23986.41;5066045;28;20190;-83
2021/12/20 03:21:51;;;;;;;8.70;6.10;;;;;;;5.89;100.00;-23981.28;5078207;28;20221;-84
2021/12/20 03:24:17;;;;;;;9.00;6.37;;;;;;;5.57;100.00;-23972.34;5073302;28;20235;-83
2021/12/20 03:26:44;;;;;;;10.77;6.70;;;;;;;5.78;100.00;-23978.31;5074359;28;20201;-84
2021/12/20 03:29:11;;;;;;;8.97;6.23;;;;;;;5.71;100.00;-23976.31;5078984;28;20268;-85
2021/12/20 03:31:37;;;;;;;8.97;6.20;;;;;;;5.92;100.00;-23982.00;5069337;28;20860;-83
2021/12/20 03:34:04;;;;;;;8.80;6.50;;;;;;;5.91;100.00;-23981.88;5082682;28;20216;-85
2021/12/20 03:36:30;;;;;;;9.30;6.70;;;;;;;5.28;100.00;-23964.22;5074950;28;20194;-82
2021/12/20 03:38:55;;;;;;;8.63;6.30;;;;;;;5.31;100.00;-23965.09;5073678;28;20251;-85
2021/12/20 03:41:21;;;;;;;11.37;5.70;;;;;;;6.10;100.00;-23987.13;5083274;28;20190;-86
2021/12/20 03:43:47;;;;;;;7.10;5.57;;;;;;;6.05;100.00;-23985.84;5075221;28;20305;-85
2021/12/20 03:46:12;;;;;;;7.57;6.17;;;;;;;6.04;100.00;-23985.56;5076630;28;20206;-82
2021/12/20 03:48:38;;;;;;;7.93;6.40;;;;;;;5.91;100.00;-23981.72;5089639;28;20184;-82
2021/12/20 03:51:05;;;;;;;7.60;5.70;;;;;;;5.44;100.00;-23968.63;5084954;28;20197;-82
2021/12/20 03:53:33;;;;;;;8.33;6.10;;;;;;;5.83;100.00;-23979.59;5086008;28;20188;-85
2021/12/20 03:55:58;;;;;;;8.23;6.60;;;;;;;5.78;100.00;-23978.31;5081975;28;20343;-84
2021/12/20 03:58:26;;;;;;;8.30;6.30;;;;;;;5.73;100.00;-23976.75;5077046;28;20719;-84
2021/12/20 04:00:52;;;;;;;9.07;6.40;;;;;;;5.81;100.00;-23979.00;5087174;28;20246;-83
2021/12/20 04:03:18;;;;;;;8.27;6.50;;;;;;;5.97;100.00;-23983.41;5081062;28;20697;-85
2021/12/20 04:05:43;;;;;;;9.33;6.53;;;;;;;6.01;100.00;-23984.56;5085488;28;20648;-84
2021/12/20 04:08:10;;;;;;;9.40;6.30;;;;;;;5.84;100.00;-23979.88;5084686;28;20254;-84
2021/12/20 04:10:36;;;;;;;9.03;7.07;;;;;;;5.83;100.00;-23979.59;5084013;28;20186;-83
2021/12/20 04:13:01;;;;;;;10.03;7.43;;;;;;;5.72;100.00;-23976.59;5083203;28;20646;-85
2021/12/20 04:15:27;;;;;;;10.03;6.87;;;;;;;5.61;100.00;-23973.47;5074771;28;20591;-86
2021/12/20 04:17:53;;;;;;;8.83;6.63;;;;;;;5.45;100.00;-23968.78;5069822;28;20182;-84
2021/12/20 04:20:19;;;;;;;9.23;7.03;;;;;;;5.44;100.00;-23968.63;5082613;28;20205;-85
2021/12/20 04:22:44;;;;;;;10.60;6.93;;;;;;;5.49;100.00;-23969.91;5081973;28;20542;-84
2021/12/20 04:25:10;;;;;;;10.33;6.63;;;;;;;5.80;100.00;-23978.72;5078323;28;20186;-85
2021/12/20 04:27:36;;;;;;;9.13;6.77;;;;;;;5.98;100.00;-23983.72;5080250;28;20228;-85
2021/12/20 04:30:09;;;;;;;9.10;6.67;;;;;;;5.91;100.00;-23981.88;5091235;28;20190;-85
2021/12/20 04:32:36;;;;;;;11.10;7.40;;;;;;;6.04;100.00;-23985.41;5075849;28;20194;-85
2021/12/20 04:35:01;;;;;;;8.90;6.77;;;;;;;5.69;100.00;-23975.75;5070882;28;20189;-86
2021/12/20 04:37:26;;;;;;;11.30;7.13;;;;;;;5.73;100.00;-23976.88;5069640;28;20209;-84
2021/12/20 04:39:52;;;;;;;10.63;7.73;;;;;;;5.42;100.00;-23968.06;5082732;28;20181;-85
2021/12/20 04:42:18;;;;;;;10.13;7.30;;;;;;;5.77;100.00;-23978.03;5064734;28;20227;-83
2021/12/20 04:44:44;;;;;;;13.10;7.63;;;;;;;6.01;100.00;-23984.56;5068538;28;20308;-83
2021/12/20 04:47:10;;;;;;;12.30;7.67;;;;;;;6.01;100.00;-23984.69;5065132;28;20289;-84
2021/12/20 04:49:35;;;;;;;11.63;7.87;;;;;;;5.80;100.00;-23978.72;5080998;28;20213;-83
2021/12/20 04:52:02;;;;;;;10.60;7.47;;;;;;;5.82;100.00;-23979.16;5071149;28;20190;-83
2021/12/20 04:54:27;;;;;;;10.77;7.67;;;;;;;5.92;100.00;-23982.00;5080263;28;20187;-83
2021/12/20 04:56:53;;;;;;;11.67;7.77;;;;;;;6.02;100.00;-23984.97;5071181;28;20219;-84
2021/12/20 04:59:18;;;;;;;9.13;7.00;;;;;;;5.72;100.00;-23976.47;5070822;28;20248;-83
2021/12/20 05:01:45;;;;;;;11.73;7.80;;;;;;;5.84;100.00;-23979.72;5081413;28;20186;-85
2021/12/20 05:04:11;;;;;;;11.87;7.80;;;;;;;5.84;100.00;-23979.88;5066734;28;20185;-86
2021/12/20 05:06:38;;;;;;;11.73;7.17;;;;;;;5.85;100.00;-23980.00;5064951;28;20209;-86
2021/12/20 05:09:06;;;;;;;11.43;7.00;;;;;;;5.84;100.00;-23979.88;5067961;28;20223;-84
2021/12/20 05:11:36;;;;;;;9.63;7.13;;;;;;;6.11;100.00;-23987.53;5089941;28;20197;-84
2021/12/20 05:14:02;;;;;;;9.13;7.17;;;;;;;6.02;100.00;-23984.84;5100969;28;20185;-85
2021/12/20 05:16:29;;;;;;;10.73;6.93;;;;;;;6.18;100.00;-23989.38;5094182;28;20169;-84
2021/12/20 05:18:54;;;;;;;9.50;7.27;;;;;;;6.13;100.00;-23987.97;5087048;28;20209;-85
2021/12/20 05:21:20;;;;;;;10.90;7.43;;;;;;;6.33;100.00;-23993.66;5073207;28;20607;-85
2021/12/20 05:23:46;;;;;;;9.53;6.97;;;;;;;6.11;100.00;-23987.53;5078897;28;20925;-84
2021/12/20 05:26:11;;;;;;;11.80;7.67;;;;;;;6.22;100.00;-23990.53;5089131;28;20181;-85
2021/12/20 05:28:37;;;;;;;8.70;6.30;;;;;;;6.50;100.00;-23998.34;5073849;28;20186;-85
2021/12/20 05:31:02;;;;;;;11.67;7.00;;;;;;;6.14;100.00;-23988.25;5080725;28;20259;-82
2021/12/20 05:33:28;;;;;;;11.73;7.00;;;;;;;6.37;100.00;-23994.78;5076111;28;20188;-84
2021/12/20 05:35:54;;;;;;;10.97;7.20;;;;;;;6.43;100.00;-23996.34;5073764;28;20186;-80
2021/12/20 05:38:20;;;;;;;9.97;6.77;;;;;;;6.34;100.00;-23993.78;5074801;28;20185;-77
2021/12/20 05:40:46;;;;;;;9.20;6.63;;;;;;;6.34;100.00;-23993.78;5074210;28;20192;-78
2021/12/20 05:43:11;;;;;;;9.13;6.80;;;;;;;6.26;100.00;-23991.53;5075106;28;20192;-80
2021/12/20 05:45:37;;;;;;;9.33;6.67;;;;;;;6.16;100.00;-23988.97;5070979;28;20189;-78
2021/12/20 05:48:02;;;;;;;9.77;7.00;;;;;;;6.44;100.00;-23996.78;5069311;28;20311;-79
2021/12/20 05:50:28;;;;;;;11.57;6.80;;;;;;;6.49;100.00;-23998.06;5068864;28;20295;-79
2021/12/20 05:52:54;;;;;;;9.13;6.50;;;;;;;5.79;100.00;-23978.44;5067902;28;20239;-77
2021/12/20 05:55:19;;;;;;;8.83;6.40;;;;;;;6.58;100.00;-24000.59;5063903;28;20188;-80
2021/12/20 05:57:45;;;;;;;9.53;6.90;;;;;;;6.37;100.00;-23994.78;5066023;28;20269;-76
2021/12/20 06:00:14;;;;;;;8.37;6.47;;;;;;;6.45;100.00;-23996.91;5062086;28;20213;-78
2021/12/20 06:02:42;;;;;;;8.70;6.70;;;;;;;6.40;100.00;-23995.63;5059600;28;20600;-85
2021/12/20 06:05:09;;;;;;;8.00;6.13;;;;;;;6.13;100.00;-23987.97;5057881;28;20653;-83
2021/12/20 06:07:38;;;;;;;8.40;6.30;;;;;;;6.21;100.00;-23990.38;5058927;28;20855;-83
2021/12/20 06:10:05;;;;;;;8.97;6.60;;;;;;;6.22;100.00;-23990.53;5057353;28;20263;-83
2021/12/20 06:12:30;;;;;;;13.17;7.30;;;;;;;6.31;100.00;-23993.09;5061166;28;20243;-82
2021/12/20 06:14:56;;;;;;;11.90;7.53;;;;;;;6.26;100.00;-23991.53;5059293;28;20182;-83
2021/12/20 06:17:22;;;;;;;10.07;7.03;;;;;;;6.45;100.00;-23997.06;5058410;28;20732;-85
2021/12/20 06:19:47;;;;;;;11.53;7.57;;;;;;;6.43;100.00;-23996.50;5060039;28;20223;-86
2021/12/20 06:22:14;;;;;;;12.70;7.23;;;;;;;6.22;100.00;-23990.53;5057453;28;20182;-86
2021/12/20 06:24:39;;;;;;;12.33;8.27;;;;;;;6.20;100.00;-23990.09;5059977;28;20718;-85
2021/12/20 06:27:05;;;;;;;11.90;7.50;;;;;;;6.14;100.00;-23988.41;5061241;28;20233;-85
2021/12/20 06:29:33;;;;;;;14.07;7.63;;;;;;;6.31;100.00;-23992.94;5061107;28;20259;-84
2021/12/20 06:31:59;;;;;;;11.23;7.60;;;;;;;6.53;100.00;-23999.19;5077457;28;20190;-83
2021/12/20 06:34:24;;;;;;;13.87;7.63;;;;;;;6.21;100.00;-23990.38;5085112;28;20220;-85
2021/12/20 06:36:50;;;;;;;14.50;7.63;;;;;;;6.15;100.00;-23988.69;5072030;28;20269;-84
2021/12/20 06:39:16;;;;;;;10.80;6.77;;;;;;;6.39;100.00;-23995.22;5067202;28;20196;-84
2021/12/20 06:41:42;;;;;;;12.60;7.20;;;;;;;6.64;100.00;-24002.44;5078536;28;20166;-86
2021/12/20 06:44:08;;;;;;;10.50;7.07;;;;;;;6.48;100.00;-23997.75;5064922;28;20237;-87
2021/12/20 06:46:40;;;;;;;11.10;7.10;;;;;;;6.53;100.00;-23999.19;5058039;28;20300;-84
2021/12/20 06:49:09;;;;;;;9.37;6.50;;;;;;;6.59;100.00;-24000.88;5057413;28;20186;-87
2021/12/20 06:51:40;;;;;;;12.27;6.50;;;;;;;6.56;100.00;-24000.19;5075377;28;20280;-87
2021/12/20 06:54:07;;;;;;;10.30;6.80;;;;;;;6.56;100.00;-24000.03;5055573;28;20186;-84
2021/12/20 06:56:32;;;;;;;12.53;6.70;;;;;;;6.15;100.00;-23988.53;5056642;28;20186;-86
2021/12/20 06:58:58;;;;;;;11.93;6.53;;;;;;;6.70;100.00;-24004.00;5061995;28;20185;-87
2021/12/20 07:01:23;;;;;;;9.43;6.77;;;;;;;6.61;100.00;-24001.59;5057655;28;20531;-86
2021/12/20 07:03:49;;;;;;;14.10;8.07;;;;;;;6.69;100.00;-24003.59;5057333;28;20564;-84
2021/12/20 07:06:14;;;;;;;11.40;8.00;;;;;;;6.98;100.00;-24011.81;5056603;28;20189;-86
2021/12/20 07:08:40;;;;;;;13.30;7.27;;;;;;;6.78;100.00;-24006.13;5060494;28;21895;-87
2021/12/20 07:11:07;;;;;;;13.23;6.90;;;;;;;6.78;100.00;-24006.13;5062165;28;20264;-87
2021/12/20 07:13:33;;;;;;;8.80;4.90;;;;;;;6.91;100.00;-24009.97;5063607;28;20213;-78
2021/12/20 07:15:58;;;;;;;6.60;5.23;;;;;;;6.79;100.00;-24006.56;5061228;28;20633;-79
2021/12/20 07:18:24;;;;;;;10.13;5.40;;;;;;;6.90;100.00;-24009.69;5058530;28;20190;-79
2021/12/20 07:23:38;;;;;;;8.43;5.20;;;;;;;6.94;100.00;-24010.81;5040875;28;20201;-81
2021/12/20 07:26:04;;;;;;;9.33;6.27;;;;;;;6.62;100.00;-24001.75;5063032;28;20177;-76
2021/12/20 07:28:29;;;;;;;8.73;5.90;;;;;;;6.80;100.00;-24006.84;5058830;28;20598;-75
2021/12/20 07:30:55;;;;;;;9.90;6.20;;;;;;;7.08;100.00;-24014.78;5066880;28;20285;-76
2021/12/20 07:33:20;;;;;;;13.97;7.13;;;;;;;7.09;100.00;-24014.94;5067623;28;20327;-78
2021/12/20 07:35:46;;;;;;;9.17;5.33;;;;;;;7.29;100.00;-24020.59;5065711;28;21066;-77
2021/12/20 07:38:14;;;;;;;8.90;5.33;;;;;;;7.19;100.00;-24017.63;5063148;28;20708;-82
2021/12/20 07:40:48;;;;;;;7.50;5.20;;;;;;;7.36;100.00;-24022.59;5063005;28;20657;-80
2021/12/20 07:43:16;;;;;;;7.70;4.60;;;;;;;7.05;100.00;-24013.81;5068664;28;20252;-83
2021/12/20 07:45:42;;;;;;;6.93;4.63;;;;;;;7.15;100.00;-24016.50;5066717;28;20177;-78
2021/12/20 07:51:42;;;;;;;6.17;4.77;;;;;;;7.02;100.00;-24013.09;5070934;28;20680;-80
2021/12/20 07:54:08;;;;;;;7.20;5.10;;;;;;;7.12;100.00;-24015.66;5073317;28;20245;-80
2021/12/20 07:56:34;;;;;;;8.03;4.40;;;;;;;7.74;100.00;-24033.22;5062487;28;20181;-78
2021/12/20 07:58:59;;;;;;;7.40;4.17;;;;;;;7.22;100.00;-24018.63;5067048;28;20174;-82
2021/12/20 08:01:26;;;;;;;5.10;3.93;;;;;;;7.85;100.00;-24036.34;5075901;28;20185;-79
2021/12/20 08:03:52;;;;;;;7.73;3.67;;;;;;;7.41;100.00;-24024.00;5060944;28;20188;-80
2021/12/20 08:06:17;;;;;;;5.27;4.23;;;;;;;7.82;100.00;-24035.34;5058514;28;20178;-80
2021/12/20 08:08:43;;;;;;;6.07;3.50;;;;;;;8.07;100.00;-24042.28;5058780;28;20186;-81
2021/12/20 08:11:09;;;;;;;5.13;3.80;;;;;;;8.04;100.00;-24041.44;5060038;28;20626;-77
2021/12/20 08:13:35;;;;;;;4.97;4.03;;;;;;;8.12;99.35;-24043.69;5061909;28;20198;-78
2021/12/20 08:16:01;;;;;;;6.37;4.63;;;;;;;8.23;100.00;-24046.81;5063482;28;20333;-76
2021/12/20 08:18:26;;;;;;;6.57;4.20;;;;;;;8.03;98.54;-24041.16;5061071;28;20181;-78
2021/12/20 08:20:52;;;;;;;7.47;3.90;;;;;;;8.28;98.22;-24048.22;5060865;28;20181;-79
2021/12/20 08:23:18;;;;;;;7.40;4.20;;;;;;;8.23;97.62;-24046.97;5061887;28;20190;-80
2021/12/20 08:25:43;;;;;;;4.20;3.60;;;;;;;8.22;96.07;-24046.53;5070488;28;20209;-79
2021/12/20 08:28:10;;;;;;;6.70;3.90;;;;;;;8.30;95.37;-24048.81;5062101;28;20209;-83
2021/12/20 08:30:35;;;;;;;4.43;3.60;;;;;;;8.36;95.17;-24050.66;5061010;28;20277;-81
2021/12/20 08:33:01;;;;;;;6.97;3.57;;;;;;;8.41;95.09;-24052.06;5055623;28;20657;-79
2021/12/20 08:35:26;;;;;;;4.30;3.53;;;;;;;8.30;95.50;-24048.94;5060510;28;20194;-79
2021/12/20 08:37:53;;;;;;;4.47;3.67;;;;;;;8.18;95.40;-24045.41;5059024;28;20182;-79
2021/12/20 08:40:32;;;;;;;5.83;3.83;;;;;;;8.15;96.70;-24044.69;5064729;28;20186;-83
2021/12/20 08:42:59;;;;;;;4.90;3.63;;;;;;;8.22;95.66;-24046.53;5065645;28;20320;-78
2021/12/20 08:45:26;;;;;;;6.07;4.10;;;;;;;8.22;95.45;-24046.69;5061925;28;20221;-80
2021/12/20 08:47:52;;;;;;;10.33;4.57;;;;;;;8.36;95.31;-24050.50;5063399;28;20217;-76
2021/12/20 08:50:20;;;;;;;5.30;4.30;;;;;;;8.00;94.19;-24040.59;5062925;28;20177;-77
2021/12/20 08:52:46;;;;;;;5.97;4.50;;;;;;;7.96;93.15;-24039.44;5059287;28;20234;-78
2021/12/20 08:55:11;;;;;;;5.73;4.20;;;;;;;7.87;94.27;-24036.75;5076269;28;20178;-75
2021/12/20 08:57:37;;;;;;;8.30;4.03;;;;;;;8.15;93.39;-24044.56;5058625;28;20542;-77
2021/12/20 09:00:06;;;;;;;6.73;4.53;;;;;;;8.09;93.73;-24042.84;5056045;28;20665;-77
2021/12/20 09:02:36;;;;;;;5.07;3.90;;;;;;;7.81;94.29;-24035.22;5058149;28;20233;-76
2021/12/20 09:05:02;;;;;;;6.33;4.03;;;;;;;8.30;93.56;-24048.81;5059522;28;20216;-80
2021/12/20 09:07:28;;;;;;;5.37;3.97;;;;;;;8.06;92.86;-24042.16;5061892;28;20318;-81
2021/12/20 09:09:53;;;;;;;5.37;3.70;;;;;;;8.20;91.95;-24046.09;5060236;28;20273;-78
2021/12/20 09:12:20;;;;;;;5.20;3.60;;;;;;;8.39;92.47;-24051.34;5058857;28;20182;-78
2021/12/20 09:14:49;;;;;;;4.70;3.90;;;;;;;8.58;91.02;-24056.72;5059280;28;20174;-80
2021/12/20 09:17:16;;;;;;;5.03;3.20;;;;;;;8.83;90.69;-24063.81;5058982;28;20264;-81
2021/12/20 09:19:42;;;;;;;3.53;2.97;;;;;;;8.77;89.55;-24062.09;5056105;28;20194;-76
2021/12/20 09:22:10;;;;;;;5.47;3.20;;;;;;;8.74;88.90;-24061.13;5058832;28;20243;-78
2021/12/20 09:24:36;;;;;;;9.07;3.20;;;;;;;9.18;88.91;-24073.41;5055627;28;20178;-75
2021/12/20 09:27:03;;;;;;;5.53;3.20;;;;;;;8.91;88.65;-24065.78;5062993;28;20205;-78
2021/12/20 09:29:28;;;;;;;9.27;3.20;;;;;;;9.03;88.09;-24069.31;5062293;28;20200;-81
2021/12/20 09:31:55;;;;;;;5.57;3.40;;;;;;;9.19;88.28;-24073.72;5074290;28;20186;-78
2021/12/20 09:34:21;;;;;;;6.43;3.60;;;;;;;9.16;88.05;-24072.84;5061277;28;20669;-77
2021/12/20 09:36:46;;;;;;;9.60;3.50;;;;;;;9.02;85.75;-24069.03;5057671;28;20269;-77
2021/12/20 09:39:14;;;;;;;3.77;3.20;;;;;;;9.28;85.55;-24076.25;5057253;28;20182;-76
2021/12/20 09:44:08;;;;;;;7.63;3.40;;;;;;;9.13;84.54;-24072.00;5060093;28;20311;-80
2021/12/20 09:46:34;;;;;;;3.77;3.10;;;;;;;9.21;83.70;-24074.25;5056097;28;20182;-80
2021/12/20 09:49:00;;;;;;;6.63;3.07;;;;;;;8.64;83.83;-24058.44;5059221;28;20197;-78
2021/12/20 09:51:26;;;;;;;4.30;2.90;;;;;;;9.31;84.41;-24077.09;5059679;28;20268;-79
2021/12/20 09:53:54;;;;;;;4.17;3.30;;;;;;;9.45;84.54;-24080.91;5057178;28;20277;-84
2021/12/20 09:56:23;;;;;;;7.37;3.10;;;;;;;9.54;82.40;-24083.59;5072330;28;20198;-81
2021/12/20 09:58:52;;;;;;;5.93;2.80;;;;;;;9.42;81.47;-24080.22;5058769;28;20178;-81
2021/12/20 10:01:20;;;;;;;4.10;2.60;;;;;;;9.60;81.40;-24085.28;5077115;28;20968;-75
2021/12/20 10:03:46;;;;;;;6.00;2.97;;;;;;;9.48;81.32;-24081.91;5073559;28;20937;-78
2021/12/20 10:06:12;;;;;;;5.60;2.97;;;;;;;9.65;79.73;-24086.72;5061530;28;20663;-79
2021/12/20 10:08:48;;;;;;;5.10;3.07;;;;;;;9.72;81.35;-24088.69;5060642;28;20208;-80
2021/12/20 10:11:25;;;;;;;3.40;2.60;;;;;;;9.62;78.01;-24085.72;5057510;28;20186;-78
2021/12/20 10:14:09;;;;;;;3.22;2.50;;;;;;;9.54;78.72;-24083.59;5058635;28;20201;-82
2021/12/20 10:16:38;;;;;;;3.30;2.70;;;;;;;9.78;79.86;-24090.25;5058388;28;20185;-77
2021/12/20 10:19:09;;;;;;;3.10;2.80;;;;;;;9.73;80.36;-24088.97;5062731;28;20595;-79
2021/12/20 10:21:41;;;;;;;4.27;3.10;;;;;;;9.57;81.52;-24084.44;5060932;28;20288;-78
2021/12/20 10:24:07;;;;;;;4.60;3.23;;;;;;;9.76;79.97;-24089.81;5060925;28;20178;-82
2021/12/20 10:26:45;;;;;;;3.23;2.60;;;;;;;9.71;80.83;-24088.41;5060409;28;20261;-81
2021/12/20 10:29:21;;;;;;;4.27;2.60;;;;;;;9.98;80.19;-24095.75;5061359;28;20178;-79
2021/12/20 10:31:48;;;;;;;3.10;2.80;;;;;;;10.16;80.84;-24100.84;5060386;28;20181;-82
2021/12/20 10:34:14;;;;;;;3.38;3.08;;;;;;;10.18;78.78;-24101.53;5063587;28;20716;-82
2021/12/20 10:36:54;;;;;;;2.93;2.63;;;;;;;10.36;76.44;-24106.47;5062118;28;20269;-77
2021/12/20 10:39:45;;;;;;;4.22;2.60;;;;;;;9.88;75.04;-24092.91;5060070;28;20188;-82
2021/12/20 10:42:19;;;;;;;4.53;2.72;;;;;;;10.45;76.13;-24108.88;5076606;28;20178;-80
2021/12/20 10:45:14;;;;;;;3.80;2.67;;;;;;;10.27;78.10;-24103.94;5061907;28;20704;-78
2021/12/20 10:47:41;;;;;;;3.45;2.88;;;;;;;10.14;79.41;-24100.25;5063238;28;20595;-77
2021/12/20 10:50:30;;;;;;;7.05;3.20;;;;;;;9.97;78.09;-24095.59;5070458;28;20677;-79
2021/12/20 10:53:14;;;;;;;3.73;2.77;;;;;;;9.58;77.67;-24084.72;5063933;28;20185;-81
2021/12/20 10:55:41;;;;;;;2.93;2.63;;;;;;;9.53;78.15;-24083.31;5076013;28;20303;-79
2021/12/20 10:58:38;;;;;;;3.80;2.90;;;;;;;9.27;78.86;-24075.97;5061364;28;20746;-76
2021/12/20 11:01:15;;;;;;;2.97;2.57;;;;;;;8.99;79.23;-24068.19;5063146;28;20186;-81
2021/12/20 11:03:42;;;;;;;5.13;2.70;;;;;;;8.88;79.62;-24065.06;5061095;28;20204;-80
2021/12/20 11:11:40;;;;;;;4.97;2.83;;;;;;;8.74;79.84;-24061.13;5060712;28;20250;-78
2021/12/20 11:14:08;;;;;;;3.63;3.00;;;;;;;9.00;81.23;-24068.34;5063037;28;20182;-79
2021/12/20 11:16:41;;;;;;;3.90;2.87;;;;;;;9.07;79.20;-24070.44;5077034;28;20200;-81
2021/12/20 11:19:07;;;;;;;5.73;3.00;;;;;;;9.05;80.42;-24069.88;5079821;28;20185;-80
2021/12/20 11:21:34;;;;;;;4.53;2.80;;;;;;;9.20;80.05;-24074.13;5086800;28;20178;-74
2021/12/20 11:24:00;;;;;;;5.30;3.00;;;;;;;9.04;80.42;-24069.59;5086646;28;20178;-76
2021/12/20 11:26:27;;;;;;;3.97;2.80;;;;;;;9.68;78.48;-24087.41;5087257;28;20170;-75
2021/12/20 11:28:55;;;;;;;4.97;2.70;;;;;;;9.64;76.82;-24086.44;5087181;28;20178;-76
2021/12/20 11:31:20;;;;;;;3.50;2.50;;;;;;;9.63;76.55;-24086.13;5085707;28;20216;-76
2021/12/20 11:33:46;;;;;;;7.50;2.90;;;;;;;9.28;77.76;-24076.25;5090907;28;20178;-76
2021/12/20 11:36:12;;;;;;;9.07;3.00;;;;;;;9.62;79.98;-24085.72;5085656;28;20190;-80
2021/12/20 11:38:38;;;;;;;2.92;2.60;;;;;;;9.67;78.11;-24087.28;5077819;28;20174;-79
2021/12/20 11:41:05;;;;;;;4.75;2.88;;;;;;;9.57;76.31;-24084.31;5078099;28;20166;-76
2021/12/20 11:43:30;;;;;;;3.50;2.83;;;;;;;9.29;78.30;-24076.66;5075955;28;20267;-80
2021/12/20 11:45:58;;;;;;;4.07;2.90;;;;;;;9.26;80.32;-24075.81;5075427;28;20209;-76
2021/12/20 11:48:29;;;;;;;5.10;2.67;;;;;;;9.01;82.00;-24068.75;5085723;28;20212;-78
2021/12/20 11:50:58;;;;;;;4.50;3.10;;;;;;;9.44;80.94;-24080.78;5085224;28;20178;-83
2021/12/20 11:53:24;;;;;;;4.23;3.00;;;;;;;9.45;82.75;-24080.91;5082476;28;20186;-79